sensor_id;sensor_type;location;lat;lon;timestamp;P1;durP1;ratioP1;P2;durP2;ratioP2
18576;SDS011;9418;52.694;13.294;2023-08-06T00:00:29;5.53;;;3.50;;
18576;SDS011;9418;52.694;13.294;2023-08-06T00:02:55;6.27;;;4.10;;
18576;SDS011;9418;52.694;13.294;2023-08-06T00:05:22;5.10;;;3.70;;
18576;SDS011;9418;52.694;13.294;2023-08-06T00:07:48;9.90;;;4.40;;
18576;SDS011;9418;52.694;13.294;2023-08-06T00:10:15;7.23;;;4.47;;
18576;SDS011;9418;52.694;13.294;2023-08-06T00:12:43;6.10;;;3.67;;
18576;SDS011;9418;52.694;13.294;2023-08-06T00:15:10;7.47;;;3.90;;
18576;SDS011;9418;52.694;13.294;2023-08-06T00:17:37;5.37;;;3.93;;
18576;SDS011;9418;52.694;13.294;2023-08-06T00:20:04;6.70;;;4.00;;
18576;SDS011;9418;52.694;13.294;2023-08-06T00:22:32;16.70;;;3.97;;
18576;SDS011;9418;52.694;13.294;2023-08-06T00:24:59;6.37;;;3.73;;
18576;SDS011;9418;52.694;13.294;2023-08-06T00:27:26;8.37;;;4.27;;
18576;SDS011;9418;52.694;13.294;2023-08-06T00:29:54;7.63;;;4.00;;
18576;SDS011;9418;52.694;13.294;2023-08-06T00:32:20;6.37;;;3.97;;
18576;SDS011;9418;52.694;13.294;2023-08-06T00:34:47;7.40;;;4.70;;
18576;SDS011;9418;52.694;13.294;2023-08-06T00:37:15;6.50;;;4.60;;
18576;SDS011;9418;52.694;13.294;2023-08-06T00:39:42;6.33;;;4.10;;
18576;SDS011;9418;52.694;13.294;2023-08-06T00:42:09;5.30;;;4.10;;
18576;SDS011;9418;52.694;13.294;2023-08-06T00:44:36;4.77;;;3.80;;
18576;SDS011;9418;52.694;13.294;2023-08-06T00:47:04;6.33;;;4.27;;
18576;SDS011;9418;52.694;13.294;2023-08-06T00:49:32;7.70;;;4.10;;
18576;SDS011;9418;52.694;13.294;2023-08-06T00:51:58;9.10;;;4.57;;
18576;SDS011;9418;52.694;13.294;2023-08-06T00:54:25;4.37;;;3.97;;
18576;SDS011;9418;52.694;13.294;2023-08-06T00:56:53;6.10;;;4.60;;
18576;SDS011;9418;52.694;13.294;2023-08-06T00:59:19;7.90;;;4.43;;
18576;SDS011;9418;52.694;13.294;2023-08-06T01:01:46;11.90;;;4.97;;
18576;SDS011;9418;52.694;13.294;2023-08-06T01:04:16;5.13;;;4.00;;
18576;SDS011;9418;52.694;13.294;2023-08-06T01:06:43;5.57;;;4.40;;
18576;SDS011;9418;52.694;13.294;2023-08-06T01:09:27;9.73;;;4.10;;
18576;SDS011;9418;52.694;13.294;2023-08-06T01:12:04;5.83;;;4.57;;
18576;SDS011;9418;52.694;13.294;2023-08-06T01:14:37;16.13;;;5.40;;
18576;SDS011;9418;52.694;13.294;2023-08-06T01:17:11;10.73;;;4.83;;
18576;SDS011;9418;52.694;13.294;2023-08-06T01:19:40;13.43;;;5.37;;
18576;SDS011;9418;52.694;13.294;2023-08-06T01:22:08;5.07;;;4.53;;
18576;SDS011;9418;52.694;13.294;2023-08-06T01:24:34;8.97;;;4.67;;
18576;SDS011;9418;52.694;13.294;2023-08-06T01:27:03;7.43;;;4.33;;
18576;SDS011;9418;52.694;13.294;2023-08-06T01:29:34;10.97;;;4.60;;
18576;SDS011;9418;52.694;13.294;2023-08-06T01:32:05;9.03;;;4.73;;
18576;SDS011;9418;52.694;13.294;2023-08-06T01:34:34;6.30;;;5.30;;
18576;SDS011;9418;52.694;13.294;2023-08-06T01:37:02;8.97;;;5.43;;
18576;SDS011;9418;52.694;13.294;2023-08-06T01:39:31;6.17;;;4.43;;
18576;SDS011;9418;52.694;13.294;2023-08-06T01:41:59;5.40;;;4.70;;
18576;SDS011;9418;52.694;13.294;2023-08-06T01:44:26;8.00;;;4.93;;
18576;SDS011;9418;52.694;13.294;2023-08-06T01:46:52;7.33;;;5.40;;
18576;SDS011;9418;52.694;13.294;2023-08-06T01:49:19;9.87;;;5.20;;
18576;SDS011;9418;52.694;13.294;2023-08-06T01:51:45;14.23;;;5.50;;
18576;SDS011;9418;52.694;13.294;2023-08-06T01:54:12;5.87;;;5.27;;
18576;SDS011;9418;52.694;13.294;2023-08-06T01:56:40;8.27;;;5.80;;
18576;SDS011;9418;52.694;13.294;2023-08-06T01:59:06;7.50;;;6.20;;
18576;SDS011;9418;52.694;13.294;2023-08-06T02:01:33;8.60;;;6.20;;
18576;SDS011;9418;52.694;13.294;2023-08-06T02:03:59;6.43;;;5.43;;
18576;SDS011;9418;52.694;13.294;2023-08-06T02:06:26;6.70;;;5.63;;
18576;SDS011;9418;52.694;13.294;2023-08-06T02:08:52;13.20;;;6.03;;
18576;SDS011;9418;52.694;13.294;2023-08-06T02:11:19;5.97;;;5.13;;
18576;SDS011;9418;52.694;13.294;2023-08-06T02:13:46;8.03;;;5.50;;
18576;SDS011;9418;52.694;13.294;2023-08-06T02:16:13;8.10;;;5.27;;
18576;SDS011;9418;52.694;13.294;2023-08-06T02:18:39;5.57;;;5.07;;
18576;SDS011;9418;52.694;13.294;2023-08-06T02:21:06;7.10;;;5.40;;
18576;SDS011;9418;52.694;13.294;2023-08-06T02:23:32;10.53;;;6.33;;
18576;SDS011;9418;52.694;13.294;2023-08-06T02:25:59;8.93;;;6.10;;
18576;SDS011;9418;52.694;13.294;2023-08-06T02:28:26;9.27;;;6.50;;
18576;SDS011;9418;52.694;13.294;2023-08-06T02:30:54;6.20;;;5.60;;
18576;SDS011;9418;52.694;13.294;2023-08-06T02:33:21;9.63;;;5.33;;
18576;SDS011;9418;52.694;13.294;2023-08-06T02:35:48;10.33;;;6.23;;
18576;SDS011;9418;52.694;13.294;2023-08-06T02:38:14;10.23;;;6.10;;
18576;SDS011;9418;52.694;13.294;2023-08-06T02:40:44;6.07;;;5.47;;
18576;SDS011;9418;52.694;13.294;2023-08-06T02:43:11;7.83;;;6.33;;
18576;SDS011;9418;52.694;13.294;2023-08-06T02:45:37;6.80;;;6.10;;
18576;SDS011;9418;52.694;13.294;2023-08-06T02:48:05;6.67;;;6.03;;
18576;SDS011;9418;52.694;13.294;2023-08-06T02:50:37;8.00;;;6.80;;
18576;SDS011;9418;52.694;13.294;2023-08-06T02:53:05;9.30;;;5.37;;
18576;SDS011;9418;52.694;13.294;2023-08-06T02:55:31;8.87;;;6.10;;
18576;SDS011;9418;52.694;13.294;2023-08-06T02:57:59;6.60;;;6.00;;
18576;SDS011;9418;52.694;13.294;2023-08-06T03:00:25;13.00;;;5.80;;
18576;SDS011;9418;52.694;13.294;2023-08-06T03:02:52;7.73;;;5.53;;
18576;SDS011;9418;52.694;13.294;2023-08-06T03:05:20;7.17;;;6.10;;
18576;SDS011;9418;52.694;13.294;2023-08-06T03:07:47;10.00;;;6.30;;
18576;SDS011;9418;52.694;13.294;2023-08-06T03:10:13;7.13;;;6.17;;
18576;SDS011;9418;52.694;13.294;2023-08-06T03:12:40;7.00;;;6.30;;
18576;SDS011;9418;52.694;13.294;2023-08-06T03:15:07;7.27;;;6.57;;
18576;SDS011;9418;52.694;13.294;2023-08-06T03:17:34;8.23;;;6.20;;
18576;SDS011;9418;52.694;13.294;2023-08-06T03:20:00;8.37;;;6.50;;
18576;SDS011;9418;52.694;13.294;2023-08-06T03:22:28;6.80;;;6.20;;
18576;SDS011;9418;52.694;13.294;2023-08-06T03:24:55;6.63;;;6.03;;
18576;SDS011;9418;52.694;13.294;2023-08-06T03:27:21;7.10;;;6.40;;
18576;SDS011;9418;52.694;13.294;2023-08-06T03:29:48;8.20;;;6.47;;
18576;SDS011;9418;52.694;13.294;2023-08-06T03:32:15;7.00;;;6.30;;
18576;SDS011;9418;52.694;13.294;2023-08-06T03:34:41;8.33;;;6.93;;
18576;SDS011;9418;52.694;13.294;2023-08-06T03:37:08;7.43;;;6.70;;
18576;SDS011;9418;52.694;13.294;2023-08-06T03:39:36;7.23;;;6.53;;
18576;SDS011;9418;52.694;13.294;2023-08-06T03:42:02;9.93;;;6.80;;
18576;SDS011;9418;52.694;13.294;2023-08-06T03:44:29;10.00;;;7.73;;
18576;SDS011;9418;52.694;13.294;2023-08-06T03:46:56;8.60;;;7.57;;
18576;SDS011;9418;52.694;13.294;2023-08-06T03:49:22;8.40;;;7.20;;
18576;SDS011;9418;52.694;13.294;2023-08-06T03:51:49;8.67;;;6.30;;
18576;SDS011;9418;52.694;13.294;2023-08-06T03:54:15;8.87;;;7.37;;
18576;SDS011;9418;52.694;13.294;2023-08-06T03:56:43;8.33;;;7.53;;
18576;SDS011;9418;52.694;13.294;2023-08-06T03:59:10;9.20;;;6.40;;
18576;SDS011;9418;52.694;13.294;2023-08-06T04:01:36;7.90;;;7.13;;
18576;SDS011;9418;52.694;13.294;2023-08-06T04:04:03;7.53;;;6.93;;
18576;SDS011;9418;52.694;13.294;2023-08-06T04:06:29;8.63;;;7.10;;
18576;SDS011;9418;52.694;13.294;2023-08-06T04:08:56;8.27;;;7.40;;
18576;SDS011;9418;52.694;13.294;2023-08-06T04:11:22;8.67;;;7.97;;
18576;SDS011;9418;52.694;13.294;2023-08-06T04:13:50;9.10;;;6.70;;
18576;SDS011;9418;52.694;13.294;2023-08-06T04:16:16;7.73;;;7.07;;
18576;SDS011;9418;52.694;13.294;2023-08-06T04:18:43;9.03;;;7.40;;
18576;SDS011;9418;52.694;13.294;2023-08-06T04:21:10;8.00;;;7.30;;
18576;SDS011;9418;52.694;13.294;2023-08-06T04:23:37;7.37;;;6.63;;
18576;SDS011;9418;52.694;13.294;2023-08-06T04:26:03;9.17;;;6.80;;
18576;SDS011;9418;52.694;13.294;2023-08-06T04:28:30;8.57;;;7.67;;
18576;SDS011;9418;52.694;13.294;2023-08-06T04:30:58;7.90;;;7.20;;
18576;SDS011;9418;52.694;13.294;2023-08-06T04:33:25;9.13;;;7.87;;
18576;SDS011;9418;52.694;13.294;2023-08-06T04:35:53;9.00;;;7.23;;
18576;SDS011;9418;52.694;13.294;2023-08-06T04:38:20;8.70;;;7.80;;
18576;SDS011;9418;52.694;13.294;2023-08-06T04:40:48;9.07;;;7.10;;
18576;SDS011;9418;52.694;13.294;2023-08-06T04:43:15;10.73;;;7.13;;
18576;SDS011;9418;52.694;13.294;2023-08-06T04:45:45;8.20;;;7.30;;
18576;SDS011;9418;52.694;13.294;2023-08-06T04:48:13;9.00;;;8.20;;
18576;SDS011;9418;52.694;13.294;2023-08-06T04:50:42;8.70;;;7.90;;
18576;SDS011;9418;52.694;13.294;2023-08-06T04:53:10;8.50;;;7.70;;
18576;SDS011;9418;52.694;13.294;2023-08-06T04:55:36;8.50;;;7.80;;
18576;SDS011;9418;52.694;13.294;2023-08-06T04:58:03;8.97;;;8.17;;
18576;SDS011;9418;52.694;13.294;2023-08-06T05:00:30;8.43;;;7.63;;
18576;SDS011;9418;52.694;13.294;2023-08-06T05:02:57;8.50;;;7.70;;
18576;SDS011;9418;52.694;13.294;2023-08-06T05:05:26;9.60;;;8.60;;
18576;SDS011;9418;52.694;13.294;2023-08-06T05:07:53;8.80;;;8.00;;
18576;SDS011;9418;52.694;13.294;2023-08-06T05:10:21;9.13;;;7.90;;
18576;SDS011;9418;52.694;13.294;2023-08-06T05:12:50;11.70;;;8.63;;
18576;SDS011;9418;52.694;13.294;2023-08-06T05:15:16;8.97;;;8.20;;
18576;SDS011;9418;52.694;13.294;2023-08-06T05:17:43;9.57;;;8.60;;
18576;SDS011;9418;52.694;13.294;2023-08-06T05:20:10;9.03;;;8.23;;
18576;SDS011;9418;52.694;13.294;2023-08-06T05:22:38;9.57;;;8.77;;
18576;SDS011;9418;52.694;13.294;2023-08-06T05:25:05;9.67;;;8.77;;
18576;SDS011;9418;52.694;13.294;2023-08-06T05:27:32;9.27;;;8.00;;
18576;SDS011;9418;52.694;13.294;2023-08-06T05:29:59;13.20;;;9.10;;
18576;SDS011;9418;52.694;13.294;2023-08-06T05:32:25;9.50;;;8.50;;
18576;SDS011;9418;52.694;13.294;2023-08-06T05:34:52;10.10;;;9.03;;
18576;SDS011;9418;52.694;13.294;2023-08-06T05:37:18;11.23;;;8.90;;
18576;SDS011;9418;52.694;13.294;2023-08-06T05:39:46;9.00;;;8.10;;
18576;SDS011;9418;52.694;13.294;2023-08-06T05:42:12;10.03;;;9.10;;
18576;SDS011;9418;52.694;13.294;2023-08-06T05:44:39;10.20;;;9.30;;
18576;SDS011;9418;52.694;13.294;2023-08-06T05:47:06;12.50;;;9.53;;
18576;SDS011;9418;52.694;13.294;2023-08-06T05:49:32;11.33;;;9.23;;
18576;SDS011;9418;52.694;13.294;2023-08-06T05:51:59;14.43;;;10.33;;
18576;SDS011;9418;52.694;13.294;2023-08-06T05:54:25;15.50;;;9.50;;
18576;SDS011;9418;52.694;13.294;2023-08-06T05:56:53;12.80;;;9.73;;
18576;SDS011;9418;52.694;13.294;2023-08-06T05:59:19;12.67;;;10.57;;
18576;SDS011;9418;52.694;13.294;2023-08-06T06:01:46;11.30;;;10.30;;
18576;SDS011;9418;52.694;13.294;2023-08-06T06:04:13;11.00;;;9.90;;
18576;SDS011;9418;52.694;13.294;2023-08-06T06:06:39;11.47;;;10.40;;
18576;SDS011;9418;52.694;13.294;2023-08-06T06:09:06;11.33;;;10.13;;
18576;SDS011;9418;52.694;13.294;2023-08-06T06:11:33;12.10;;;9.30;;
18576;SDS011;9418;52.694;13.294;2023-08-06T06:14:01;12.63;;;9.70;;
18576;SDS011;9418;52.694;13.294;2023-08-06T06:16:27;10.07;;;9.17;;
18576;SDS011;9418;52.694;13.294;2023-08-06T06:18:54;10.80;;;9.90;;
18576;SDS011;9418;52.694;13.294;2023-08-06T06:21:22;12.20;;;9.37;;
18576;SDS011;9418;52.694;13.294;2023-08-06T06:23:48;10.60;;;9.60;;
18576;SDS011;9418;52.694;13.294;2023-08-06T06:26:16;11.70;;;9.93;;
18576;SDS011;9418;52.694;13.294;2023-08-06T06:28:42;11.10;;;9.80;;
18576;SDS011;9418;52.694;13.294;2023-08-06T06:31:10;10.63;;;9.60;;
18576;SDS011;9418;52.694;13.294;2023-08-06T06:33:37;10.20;;;9.10;;
18576;SDS011;9418;52.694;13.294;2023-08-06T06:36:03;10.30;;;9.40;;
18576;SDS011;9418;52.694;13.294;2023-08-06T06:38:32;10.10;;;9.20;;
18576;SDS011;9418;52.694;13.294;2023-08-06T06:40:59;9.60;;;8.80;;
18576;SDS011;9418;52.694;13.294;2023-08-06T06:43:26;9.73;;;8.73;;
18576;SDS011;9418;52.694;13.294;2023-08-06T06:45:52;10.23;;;9.33;;
18576;SDS011;9418;52.694;13.294;2023-08-06T06:48:21;10.83;;;9.43;;
18576;SDS011;9418;52.694;13.294;2023-08-06T06:50:48;10.20;;;8.90;;
18576;SDS011;9418;52.694;13.294;2023-08-06T06:53:14;13.30;;;9.30;;
18576;SDS011;9418;52.694;13.294;2023-08-06T06:55:41;9.40;;;8.60;;
18576;SDS011;9418;52.694;13.294;2023-08-06T06:58:07;9.87;;;8.93;;
18576;SDS011;9418;52.694;13.294;2023-08-06T07:00:35;12.20;;;9.37;;
18576;SDS011;9418;52.694;13.294;2023-08-06T07:03:02;9.60;;;8.33;;
18576;SDS011;9418;52.694;13.294;2023-08-06T07:05:29;8.63;;;7.93;;
18576;SDS011;9418;52.694;13.294;2023-08-06T07:07:56;8.40;;;7.57;;
18576;SDS011;9418;52.694;13.294;2023-08-06T07:10:23;8.87;;;8.00;;
18576;SDS011;9418;52.694;13.294;2023-08-06T07:12:49;9.07;;;8.20;;
18576;SDS011;9418;52.694;13.294;2023-08-06T07:15:16;9.17;;;8.33;;
18576;SDS011;9418;52.694;13.294;2023-08-06T07:17:42;7.70;;;7.10;;
18576;SDS011;9418;52.694;13.294;2023-08-06T07:20:10;8.40;;;7.60;;
18576;SDS011;9418;52.694;13.294;2023-08-06T07:22:38;7.97;;;7.20;;
18576;SDS011;9418;52.694;13.294;2023-08-06T07:25:04;8.10;;;7.40;;
18576;SDS011;9418;52.694;13.294;2023-08-06T07:27:31;7.83;;;6.97;;
18576;SDS011;9418;52.694;13.294;2023-08-06T07:29:58;9.00;;;8.10;;
18576;SDS011;9418;52.694;13.294;2023-08-06T07:32:25;11.23;;;7.93;;
18576;SDS011;9418;52.694;13.294;2023-08-06T07:34:52;8.70;;;7.90;;
18576;SDS011;9418;52.694;13.294;2023-08-06T07:37:24;10.70;;;8.23;;
18576;SDS011;9418;52.694;13.294;2023-08-06T07:39:54;9.23;;;8.23;;
18576;SDS011;9418;52.694;13.294;2023-08-06T07:42:21;10.23;;;8.10;;
18576;SDS011;9418;52.694;13.294;2023-08-06T07:44:49;8.90;;;8.00;;
18576;SDS011;9418;52.694;13.294;2023-08-06T07:47:17;9.80;;;8.90;;
18576;SDS011;9418;52.694;13.294;2023-08-06T07:49:44;9.10;;;8.17;;
18576;SDS011;9418;52.694;13.294;2023-08-06T07:52:10;11.43;;;9.33;;
18576;SDS011;9418;52.694;13.294;2023-08-06T07:54:37;9.03;;;8.13;;
18576;SDS011;9418;52.694;13.294;2023-08-06T07:57:05;8.90;;;8.20;;
18576;SDS011;9418;52.694;13.294;2023-08-06T07:59:32;10.40;;;9.40;;
18576;SDS011;9418;52.694;13.294;2023-08-06T08:01:59;10.70;;;9.80;;
18576;SDS011;9418;52.694;13.294;2023-08-06T08:04:26;12.60;;;9.43;;
18576;SDS011;9418;52.694;13.294;2023-08-06T08:06:53;10.50;;;9.40;;
18576;SDS011;9418;52.694;13.294;2023-08-06T08:09:19;17.13;;;10.90;;
18576;SDS011;9418;52.694;13.294;2023-08-06T08:11:46;10.60;;;9.60;;
18576;SDS011;9418;52.694;13.294;2023-08-06T08:14:14;11.13;;;10.13;;
18576;SDS011;9418;52.694;13.294;2023-08-06T08:16:40;10.60;;;9.60;;
18576;SDS011;9418;52.694;13.294;2023-08-06T08:19:07;10.90;;;9.90;;
18576;SDS011;9418;52.694;13.294;2023-08-06T08:21:34;10.90;;;9.87;;
18576;SDS011;9418;52.694;13.294;2023-08-06T08:24:00;11.57;;;10.30;;
18576;SDS011;9418;52.694;13.294;2023-08-06T08:26:27;10.13;;;9.20;;
18576;SDS011;9418;52.694;13.294;2023-08-06T08:28:54;10.20;;;9.40;;
18576;SDS011;9418;52.694;13.294;2023-08-06T08:31:21;11.60;;;10.57;;
18576;SDS011;9418;52.694;13.294;2023-08-06T08:33:48;10.40;;;9.40;;
18576;SDS011;9418;52.694;13.294;2023-08-06T08:36:14;10.47;;;9.57;;
18576;SDS011;9418;52.694;13.294;2023-08-06T08:38:41;10.07;;;9.27;;
18576;SDS011;9418;52.694;13.294;2023-08-06T08:41:09;9.63;;;8.83;;
18576;SDS011;9418;52.694;13.294;2023-08-06T08:43:36;10.10;;;9.20;;
18576;SDS011;9418;52.694;13.294;2023-08-06T08:46:03;10.20;;;9.40;;
18576;SDS011;9418;52.694;13.294;2023-08-06T08:48:32;9.90;;;8.73;;
18576;SDS011;9418;52.694;13.294;2023-08-06T08:50:59;10.97;;;9.90;;
18576;SDS011;9418;52.694;13.294;2023-08-06T08:53:26;10.90;;;10.00;;
18576;SDS011;9418;52.694;13.294;2023-08-06T08:55:54;10.27;;;9.33;;
18576;SDS011;9418;52.694;13.294;2023-08-06T08:58:21;10.00;;;9.00;;
18576;SDS011;9418;52.694;13.294;2023-08-06T09:00:48;10.20;;;9.10;;
18576;SDS011;9418;52.694;13.294;2023-08-06T09:03:15;12.13;;;10.37;;
18576;SDS011;9418;52.694;13.294;2023-08-06T09:05:44;10.70;;;9.60;;
18576;SDS011;9418;52.694;13.294;2023-08-06T09:08:15;10.20;;;9.40;;
18576;SDS011;9418;52.694;13.294;2023-08-06T09:10:44;11.10;;;10.00;;
18576;SDS011;9418;52.694;13.294;2023-08-06T09:13:15;10.93;;;10.00;;
18576;SDS011;9418;52.694;13.294;2023-08-06T09:15:42;10.70;;;9.60;;
18576;SDS011;9418;52.694;13.294;2023-08-06T09:18:10;11.77;;;10.63;;
18576;SDS011;9418;52.694;13.294;2023-08-06T09:20:37;10.93;;;9.83;;
18576;SDS011;9418;52.694;13.294;2023-08-06T09:23:08;12.20;;;10.00;;
18576;SDS011;9418;52.694;13.294;2023-08-06T09:25:36;11.43;;;10.10;;
18576;SDS011;9418;52.694;13.294;2023-08-06T09:28:04;11.80;;;10.60;;
18576;SDS011;9418;52.694;13.294;2023-08-06T09:30:32;15.90;;;11.90;;
18576;SDS011;9418;52.694;13.294;2023-08-06T09:32:59;11.90;;;10.70;;
18576;SDS011;9418;52.694;13.294;2023-08-06T09:35:28;11.27;;;10.20;;
18576;SDS011;9418;52.694;13.294;2023-08-06T09:37:55;11.47;;;10.37;;
18576;SDS011;9418;52.694;13.294;2023-08-06T09:40:25;12.57;;;11.37;;
18576;SDS011;9418;52.694;13.294;2023-08-06T09:42:54;12.80;;;11.60;;
18576;SDS011;9418;52.694;13.294;2023-08-06T09:45:21;13.13;;;11.93;;
18576;SDS011;9418;52.694;13.294;2023-08-06T09:47:48;12.97;;;11.70;;
18576;SDS011;9418;52.694;13.294;2023-08-06T09:50:16;15.60;;;11.50;;
18576;SDS011;9418;52.694;13.294;2023-08-06T09:52:43;14.77;;;12.30;;
18576;SDS011;9418;52.694;13.294;2023-08-06T09:55:10;14.37;;;12.77;;
18576;SDS011;9418;52.694;13.294;2023-08-06T09:57:39;13.43;;;12.23;;
18576;SDS011;9418;52.694;13.294;2023-08-06T10:00:06;12.93;;;11.73;;
18576;SDS011;9418;52.694;13.294;2023-08-06T10:02:34;13.40;;;12.10;;
18576;SDS011;9418;52.694;13.294;2023-08-06T10:05:03;12.50;;;11.20;;
18576;SDS011;9418;52.694;13.294;2023-08-06T10:07:30;12.17;;;11.07;;
18576;SDS011;9418;52.694;13.294;2023-08-06T10:09:58;11.60;;;10.60;;
18576;SDS011;9418;52.694;13.294;2023-08-06T10:12:24;13.13;;;11.97;;
18576;SDS011;9418;52.694;13.294;2023-08-06T10:14:54;13.60;;;10.80;;
18576;SDS011;9418;52.694;13.294;2023-08-06T10:17:23;11.67;;;10.67;;
18576;SDS011;9418;52.694;13.294;2023-08-06T10:19:50;12.27;;;11.00;;
18576;SDS011;9418;52.694;13.294;2023-08-06T10:22:19;13.67;;;12.27;;
18576;SDS011;9418;52.694;13.294;2023-08-06T10:24:50;13.50;;;12.13;;
18576;SDS011;9418;52.694;13.294;2023-08-06T10:27:27;14.13;;;12.73;;
18576;SDS011;9418;52.694;13.294;2023-08-06T10:29:58;11.07;;;9.97;;
18576;SDS011;9418;52.694;13.294;2023-08-06T10:32:47;12.63;;;11.30;;
18576;SDS011;9418;52.694;13.294;2023-08-06T10:35:28;11.80;;;10.80;;
18576;SDS011;9418;52.694;13.294;2023-08-06T10:37:57;11.47;;;10.10;;
18576;SDS011;9418;52.694;13.294;2023-08-06T10:40:25;9.47;;;8.77;;
18576;SDS011;9418;52.694;13.294;2023-08-06T10:42:52;11.50;;;9.00;;
18576;SDS011;9418;52.694;13.294;2023-08-06T10:45:20;10.00;;;9.10;;
18576;SDS011;9418;52.694;13.294;2023-08-06T10:47:49;9.03;;;8.23;;
18576;SDS011;9418;52.694;13.294;2023-08-06T10:50:16;10.20;;;9.20;;
18576;SDS011;9418;52.694;13.294;2023-08-06T10:52:43;9.10;;;8.20;;
18576;SDS011;9418;52.694;13.294;2023-08-06T10:55:10;9.73;;;8.73;;
18576;SDS011;9418;52.694;13.294;2023-08-06T10:57:36;9.50;;;8.60;;
18576;SDS011;9418;52.694;13.294;2023-08-06T11:00:04;9.20;;;8.50;;
18576;SDS011;9418;52.694;13.294;2023-08-06T11:02:34;10.10;;;8.97;;
18576;SDS011;9418;52.694;13.294;2023-08-06T11:05:05;9.10;;;8.40;;
18576;SDS011;9418;52.694;13.294;2023-08-06T11:07:32;9.10;;;8.20;;
18576;SDS011;9418;52.694;13.294;2023-08-06T11:10:02;8.93;;;8.13;;
18576;SDS011;9418;52.694;13.294;2023-08-06T11:12:30;7.83;;;7.10;;
18576;SDS011;9418;52.694;13.294;2023-08-06T11:14:57;9.77;;;8.67;;
18576;SDS011;9418;52.694;13.294;2023-08-06T11:17:23;9.20;;;8.20;;
18576;SDS011;9418;52.694;13.294;2023-08-06T11:19:53;10.17;;;8.97;;
18576;SDS011;9418;52.694;13.294;2023-08-06T11:22:20;12.20;;;8.60;;
18576;SDS011;9418;52.694;13.294;2023-08-06T11:24:47;8.83;;;8.03;;
18576;SDS011;9418;52.694;13.294;2023-08-06T11:27:14;8.73;;;7.83;;
18576;SDS011;9418;52.694;13.294;2023-08-06T11:29:41;8.27;;;7.57;;
18576;SDS011;9418;52.694;13.294;2023-08-06T11:32:08;9.40;;;8.60;;
18576;SDS011;9418;52.694;13.294;2023-08-06T11:34:35;10.70;;;9.60;;
18576;SDS011;9418;52.694;13.294;2023-08-06T11:37:03;8.70;;;7.90;;
18576;SDS011;9418;52.694;13.294;2023-08-06T11:39:31;9.83;;;8.73;;
18576;SDS011;9418;52.694;13.294;2023-08-06T11:41:58;10.13;;;8.57;;
18576;SDS011;9418;52.694;13.294;2023-08-06T11:44:27;12.23;;;9.47;;
18576;SDS011;9418;52.694;13.294;2023-08-06T11:46:56;10.03;;;9.13;;
18576;SDS011;9418;52.694;13.294;2023-08-06T11:49:40;10.40;;;9.40;;
18576;SDS011;9418;52.694;13.294;2023-08-06T11:52:17;9.60;;;8.77;;
18576;SDS011;9418;52.694;13.294;2023-08-06T11:54:45;8.57;;;7.87;;
18576;SDS011;9418;52.694;13.294;2023-08-06T11:57:13;10.30;;;9.30;;
18576;SDS011;9418;52.694;13.294;2023-08-06T11:59:41;9.33;;;8.43;;
18576;SDS011;9418;52.694;13.294;2023-08-06T12:02:08;9.67;;;8.80;;
18576;SDS011;9418;52.694;13.294;2023-08-06T12:07:28;9.20;;;8.30;;
18576;SDS011;9418;52.694;13.294;2023-08-06T12:09:55;9.53;;;8.57;;
18576;SDS011;9418;52.694;13.294;2023-08-06T12:12:22;8.67;;;7.87;;
18576;SDS011;9418;52.694;13.294;2023-08-06T12:14:50;9.97;;;8.43;;
18576;SDS011;9418;52.694;13.294;2023-08-06T12:17:16;8.63;;;7.80;;
18576;SDS011;9418;52.694;13.294;2023-08-06T12:19:44;9.57;;;8.60;;
18576;SDS011;9418;52.694;13.294;2023-08-06T12:22:11;12.57;;;9.10;;
18576;SDS011;9418;52.694;13.294;2023-08-06T12:24:40;8.83;;;7.93;;
18576;SDS011;9418;52.694;13.294;2023-08-06T12:27:07;9.87;;;8.97;;
18576;SDS011;9418;52.694;13.294;2023-08-06T12:29:34;10.40;;;8.80;;
18576;SDS011;9418;52.694;13.294;2023-08-06T12:32:00;8.90;;;8.03;;
18576;SDS011;9418;52.694;13.294;2023-08-06T12:34:27;9.23;;;8.33;;
18576;SDS011;9418;52.694;13.294;2023-08-06T12:36:53;13.27;;;8.80;;
18576;SDS011;9418;52.694;13.294;2023-08-06T12:39:20;10.20;;;9.13;;
18576;SDS011;9418;52.694;13.294;2023-08-06T12:41:48;10.50;;;8.27;;
18576;SDS011;9418;52.694;13.294;2023-08-06T12:44:15;8.43;;;7.57;;
18576;SDS011;9418;52.694;13.294;2023-08-06T12:46:41;9.30;;;7.70;;
18576;SDS011;9418;52.694;13.294;2023-08-06T12:49:08;8.83;;;7.93;;
18576;SDS011;9418;52.694;13.294;2023-08-06T12:51:34;11.20;;;8.00;;
18576;SDS011;9418;52.694;13.294;2023-08-06T12:54:01;8.40;;;7.53;;
18576;SDS011;9418;52.694;13.294;2023-08-06T12:56:27;8.67;;;7.77;;
18576;SDS011;9418;52.694;13.294;2023-08-06T12:58:55;9.80;;;7.60;;
18576;SDS011;9418;52.694;13.294;2023-08-06T13:01:22;12.13;;;7.50;;
18576;SDS011;9418;52.694;13.294;2023-08-06T13:03:48;8.30;;;7.53;;
18576;SDS011;9418;52.694;13.294;2023-08-06T13:06:15;10.33;;;7.53;;
18576;SDS011;9418;52.694;13.294;2023-08-06T13:08:41;10.30;;;7.53;;
18576;SDS011;9418;52.694;13.294;2023-08-06T13:11:08;8.80;;;6.00;;
18576;SDS011;9418;52.694;13.294;2023-08-06T13:13:35;16.33;;;6.00;;
18576;SDS011;9418;52.694;13.294;2023-08-06T13:16:03;9.20;;;6.67;;
18576;SDS011;9418;52.694;13.294;2023-08-06T13:18:30;7.07;;;5.33;;
18576;SDS011;9418;52.694;13.294;2023-08-06T13:20:57;6.67;;;6.07;;
18576;SDS011;9418;52.694;13.294;2023-08-06T13:23:23;7.13;;;5.77;;
18576;SDS011;9418;52.694;13.294;2023-08-06T13:25:50;6.83;;;5.27;;
18576;SDS011;9418;52.694;13.294;2023-08-06T13:28:16;7.37;;;5.10;;
18576;SDS011;9418;52.694;13.294;2023-08-06T13:30:43;5.50;;;4.87;;
18576;SDS011;9418;52.694;13.294;2023-08-06T13:33:11;4.60;;;4.10;;
18576;SDS011;9418;52.694;13.294;2023-08-06T13:35:38;5.60;;;4.60;;
18576;SDS011;9418;52.694;13.294;2023-08-06T13:38:04;5.20;;;4.70;;
18576;SDS011;9418;52.694;13.294;2023-08-06T13:40:32;5.60;;;4.90;;
18576;SDS011;9418;52.694;13.294;2023-08-06T13:42:59;4.30;;;3.90;;
18576;SDS011;9418;52.694;13.294;2023-08-06T13:45:26;6.80;;;4.70;;
18576;SDS011;9418;52.694;13.294;2023-08-06T13:47:53;6.90;;;4.87;;
18576;SDS011;9418;52.694;13.294;2023-08-06T13:50:22;4.33;;;4.03;;
18576;SDS011;9418;52.694;13.294;2023-08-06T13:52:50;5.13;;;4.63;;
18576;SDS011;9418;52.694;13.294;2023-08-06T13:55:18;4.43;;;4.00;;
18576;SDS011;9418;52.694;13.294;2023-08-06T13:57:44;4.10;;;3.10;;
18576;SDS011;9418;52.694;13.294;2023-08-06T14:00:11;5.50;;;3.67;;
18576;SDS011;9418;52.694;13.294;2023-08-06T14:02:38;3.97;;;3.57;;
18576;SDS011;9418;52.694;13.294;2023-08-06T14:05:05;4.80;;;3.57;;
18576;SDS011;9418;52.694;13.294;2023-08-06T14:07:34;2.80;;;2.60;;
18576;SDS011;9418;52.694;13.294;2023-08-06T14:10:00;3.67;;;3.23;;
18576;SDS011;9418;52.694;13.294;2023-08-06T14:12:27;4.07;;;3.33;;
18576;SDS011;9418;52.694;13.294;2023-08-06T14:14:53;4.33;;;3.50;;
18576;SDS011;9418;52.694;13.294;2023-08-06T14:17:20;4.03;;;3.43;;
18576;SDS011;9418;52.694;13.294;2023-08-06T14:19:46;4.70;;;3.37;;
18576;SDS011;9418;52.694;13.294;2023-08-06T14:22:13;3.03;;;2.83;;
18576;SDS011;9418;52.694;13.294;2023-08-06T14:24:41;3.33;;;2.80;;
18576;SDS011;9418;52.694;13.294;2023-08-06T14:27:07;3.17;;;2.80;;
18576;SDS011;9418;52.694;13.294;2023-08-06T14:29:34;3.33;;;3.03;;
18576;SDS011;9418;52.694;13.294;2023-08-06T14:32:00;5.23;;;3.07;;
18576;SDS011;9418;52.694;13.294;2023-08-06T14:34:27;5.33;;;3.40;;
18576;SDS011;9418;52.694;13.294;2023-08-06T14:36:53;6.20;;;3.40;;
18576;SDS011;9418;52.694;13.294;2023-08-06T14:39:20;3.33;;;3.10;;
18576;SDS011;9418;52.694;13.294;2023-08-06T14:41:48;7.20;;;3.17;;
18576;SDS011;9418;52.694;13.294;2023-08-06T14:44:14;7.03;;;2.93;;